To NAV CANADA Home Page Login to a new session Search on AWWS site Feedback and Comments Disclaimer Vers la page française équivalente Tips FAQ What's new on the site To the Forecasts and Observations / NOTAM section To "File a Flight Plan" website Publications and other links Update of the User's profile FIC Telephone Numbers My Weather Data Folder Route Weather Data Regional Weather Data Local Weather Data To the Forecasts and Observations / NOTAM section
Request Generated 03/23/2017 at 00:14:57 UTC . Weather information available at that time is displayed.

METAR/TAF

WINNIPEG/JAMES ARMSTRONG RICHARDSON INTL/MB    

METAR CYWG 230000Z 15014KT 15SM BKN034 OVC042 M02/M08 A3012 RMK
SC6SC2 SLP218=
SPECI CYWG 222353Z 15013G20KT 12SM SCT034 OVC044 M02/M07 A3012 RMK
SC4SC4 SLP219=
METAR CYWG 222300Z 15019KT 4SM -SN SCT030 OVC042 M02/M08 A3015 RMK
SC3SC5 SLP226=
METAR CYWG 222200Z 16017G25KT 6SM -SN OVC042 M02/M08 A3018 RMK SC8
SLP238=

TAF CYWG 222342Z 2300/2324 15015G25KT P6SM -SN SCT020 OVC040 TEMPO
2300/2303 2SM -SN BR VV012
FM230300 16012G22KT P6SM SCT030 OVC050 TEMPO 2303/2306 5SM -SN
BKN030 OVC040
FM230600 18012KT P6SM BKN050
FM231200 18012KT P6SM SKC
BECMG 2316/2318 20008KT
FM232200 31006KT P6SM SKC
RMK NXT FCST BY 230600Z=
Your time UTC time
Weather data provided by Environment Canada and NAV CANADA